Phoenix, AZ (85044)

10:09 PM MST on August 29, 2014 (GMT -0700)
Sun Ray Park Ahwatukee | Change Station
CLOSE
Current Station
Personal Weather Station
Location: Phoenix, AZ
Elevation: 1276 ft
Nearby Weather Stations

Elev 1276 ft 33.32 °N, 112.00 °W | Updated 9 seconds ago

Clear
Clear
90.0 °F
Feels Like 86 °F
N
0.0
Wind Variable Wind from WSW
Gusts 0.0 mph

Today
High -- | Low -- °F
--% Chance of Precip.
Yesterday
High -- | Low -- °F
Precip. -- in
6:00 AM 6:56 PM
Waxing Crescent, 19% visible
Pressure 29.67 in
Visibility 10.0 miles
Clouds Clear
Heat Index 86 °F
Dew Point 45 °F
Humidity 21%
Rainfall 0.00 in
Snow Depth Not available.
UV 0 out of 12
Pollen 5.60 out of 12
PM2.5 Moderate
Flu Activity Not available.
METAR KPHX 300451Z 25003KT 10SM CLR 35/07 A2974 RMK AO2 SLP047 T03500072

More Conditions Fewer Conditions

Pressure 29.67 in
Visibility 10.0 miles
Clouds Clear
Heat Index 86 °F
Dew Point 45 °F
Humidity 21%
Rainfall 0.00 in
Snow Depth Not available.
UV 0 out of 12
Pollen 5.60 out of 12
PM2.5 Moderate
Flu Activity Not available.
METAR KPHX 300451Z 25003KT 10SM CLR 35/07 A2974 RMK AO2 SLP047 T03500072

More Conditions Fewer Conditions

10-Day Weather Forecast

Almanac

Astronomy

Aug. 29, 2014 Rise Set
Actual Time 6:00 AM MST 6:56 PM MST
Civil Twilight 5:34 AM MST 7:22 PM MST
Nautical Twilight 5:04 AM MST 7:52 PM MST
Astronomical Twilight 4:33 AM MST 8:23 PM MST
Moon 9:39 AM MST (8/29) 9:11 PM MST (8/29)
Length of Visible Light 13h 47m
Length of Day
12h 56m
Tomorrow will be 1m 57s shorter.
Waxing Crescent, 19% of the Moon is Illuminated
Aug 30
Waxing Crescent
Sep 2
First Quarter
Sep 8
Full
Sep 15
Last Quarter
Sep 24
New

Yesterday's Extremes

State Highs State Lows

Community

WunderPhotos

Upload Photos

1,748,459 photos uploaded!

Nearby

Air Quality

  Air Quality AQ Index Pollutant
Yesterday Moderate
OZONE
Yesterday Good
PM10
Current Moderate
PM2.5
Friday Moderate
OZONE
Friday Good
PM10
Friday Good
CO
Saturday Moderate
OZONE
Saturday Good
PM10
Saturday Good
CO
Sunday Moderate
OZONE
Sunday Good
PM10
Sunday Good
CO

Snow Depth

Station Depth Elevation
Workman Creek 1 in 6900 ft
Snowslide Canyon 0 in 9730 ft
Beaver Head 24 in 7990 ft

Earthquake Activity

City Distance Mag. Time & Date
No recent earthquake activity has been reported nearby.
Minimum magnitude displayed is 2.5.

Coastal Water Temperatures

Place Temperature
No Stations Reporting

Nearby Weather Stations